createdAt,value
2022-09-26T00:00:44.640Z,10.76
2022-09-26T00:01:47.112Z,10.67
2022-09-26T00:02:49.422Z,10.65
2022-09-26T00:03:57.724Z,10.63
2022-09-26T00:05:00.043Z,10.62
2022-09-26T00:06:04.189Z,10.54
2022-09-26T00:07:06.349Z,10.65
2022-09-26T00:08:09.542Z,10.72
2022-09-26T00:09:12.534Z,10.77
2022-09-26T00:10:14.908Z,10.67
2022-09-26T00:11:20.313Z,10.57
2022-09-26T00:12:22.535Z,10.53
2022-09-26T00:13:26.679Z,10.42
2022-09-26T00:14:30.007Z,10.31
2022-09-26T00:15:32.316Z,10.46
2022-09-26T00:16:35.070Z,10.35
2022-09-26T00:17:37.407Z,10.39
2022-09-26T00:18:40.025Z,10.39
2022-09-26T00:19:42.264Z,10.40
2022-09-26T00:20:44.509Z,10.48
2022-09-26T00:21:47.171Z,10.40
2022-09-26T00:22:49.393Z,10.39
2022-09-26T00:23:52.220Z,10.40
2022-09-26T00:24:54.462Z,10.38
2022-09-26T00:25:58.397Z,10.37
2022-09-26T00:27:00.638Z,10.39
2022-09-26T00:28:02.984Z,10.45
2022-09-26T00:29:08.145Z,10.53
2022-09-26T00:30:11.516Z,10.58
2022-09-26T00:31:18.407Z,10.55
2022-09-26T00:32:21.007Z,10.63
2022-09-26T00:33:24.150Z,10.72
2022-09-26T00:34:26.552Z,10.70
2022-09-26T00:35:30.204Z,10.65
2022-09-26T00:36:37.937Z,10.69
2022-09-26T00:37:40.938Z,10.67
2022-09-26T00:38:44.703Z,10.67
2022-09-26T00:39:47.099Z,10.66
2022-09-26T00:40:50.333Z,10.68
2022-09-26T00:41:52.675Z,10.67
2022-09-26T00:42:55.207Z,10.74
2022-09-26T00:43:57.522Z,10.74
2022-09-26T00:44:59.808Z,10.78
2022-09-26T00:46:24.025Z,10.71
2022-09-26T00:47:35.313Z,10.72
2022-09-26T00:48:39.967Z,10.81
2022-09-26T00:49:44.938Z,10.70
2022-09-26T00:50:48.201Z,10.66
2022-09-26T00:51:57.431Z,10.69
2022-09-26T00:53:07.872Z,10.70
2022-09-26T00:54:13.344Z,10.67
2022-09-26T00:55:19.190Z,10.67
2022-09-26T00:56:30.553Z,10.54
2022-09-26T00:57:50.413Z,10.57
2022-09-26T00:59:04.304Z,10.57
2022-09-26T01:00:10.610Z,10.59
2022-09-26T01:01:13.957Z,10.54
2022-09-26T01:02:16.618Z,10.47
2022-09-26T01:03:20.437Z,10.44
2022-09-26T01:04:25.809Z,10.42
2022-09-26T01:05:28.275Z,10.41
2022-09-26T01:06:31.148Z,10.34
2022-09-26T01:07:34.751Z,10.32
2022-09-26T01:08:44.918Z,10.36
2022-09-26T01:09:48.081Z,10.48
2022-09-26T01:10:50.477Z,10.39
2022-09-26T01:11:53.641Z,10.38
2022-09-26T01:12:59.472Z,10.35
2022-09-26T01:14:03.496Z,10.21
2022-09-26T01:15:08.855Z,10.17
2022-09-26T01:16:11.244Z,10.16
2022-09-26T01:17:15.059Z,10.18
2022-09-26T01:18:18.743Z,10.22
2022-09-26T01:19:47.514Z,10.17
2022-09-26T01:21:22.506Z,10.23
2022-09-26T01:22:45.633Z,10.21
2022-09-26T01:23:53.921Z,10.13
2022-09-26T01:25:16.606Z,10.22
2022-09-26T01:26:55.118Z,10.22
2022-09-26T01:28:04.537Z,10.24
2022-09-26T01:29:28.550Z,10.25
2022-09-26T01:30:44.239Z,10.33
2022-09-26T01:32:37.570Z,10.27
2022-09-26T01:34:04.553Z,10.27
2022-09-26T01:35:32.186Z,10.25
2022-09-26T01:36:54.884Z,10.44
2022-09-26T01:38:15.817Z,10.32
2022-09-26T01:40:00.025Z,10.34
2022-09-26T01:41:14.907Z,10.39
2022-09-26T01:42:38.710Z,10.59
2022-09-26T01:43:56.380Z,10.66
2022-09-26T01:45:19.691Z,10.64
2022-09-26T01:47:00.999Z,10.71
2022-09-26T01:48:18.466Z,10.67
2022-09-26T01:49:56.899Z,10.72
2022-09-26T01:51:14.069Z,10.76
2022-09-26T01:52:23.951Z,10.77
2022-09-26T01:53:35.286Z,10.71
2022-09-26T01:54:47.589Z,10.73
2022-09-26T01:55:57.427Z,10.77
2022-09-26T01:57:03.772Z,10.85
2022-09-26T01:58:24.376Z,10.81
2022-09-26T01:59:34.487Z,10.83
2022-09-26T02:00:42.392Z,10.86
2022-09-26T02:01:46.574Z,10.70
2022-09-26T02:02:50.192Z,10.50
2022-09-26T02:03:58.298Z,10.45
2022-09-26T02:05:11.110Z,10.42
2022-09-26T02:06:23.908Z,10.32
2022-09-26T02:07:33.990Z,10.26
2022-09-26T02:08:44.189Z,10.27
2022-09-26T02:09:59.641Z,10.23
2022-09-26T02:11:10.763Z,10.20
2022-09-26T02:12:25.107Z,10.14
2022-09-26T02:13:34.388Z,10.14
2022-09-26T02:14:39.390Z,10.17
2022-09-26T02:15:44.598Z,10.20
2022-09-26T02:16:49.910Z,10.23
2022-09-26T02:18:01.934Z,10.26
2022-09-26T02:19:15.210Z,10.21
2022-09-26T02:20:28.794Z,10.12
2022-09-26T02:21:31.098Z,10.17
2022-09-26T02:22:35.167Z,10.15
2022-09-26T02:23:37.425Z,10.15
2022-09-26T02:24:40.181Z,10.16
2022-09-26T02:25:42.467Z,10.28
2022-09-26T02:26:44.711Z,10.25
2022-09-26T02:27:48.382Z,10.27
2022-09-26T02:28:50.746Z,10.28
2022-09-26T02:29:54.558Z,10.27
2022-09-26T02:30:59.354Z,10.15
2022-09-26T02:32:12.785Z,10.23
2022-09-26T02:33:16.367Z,10.31
2022-09-26T02:34:18.767Z,10.26
2022-09-26T02:35:40.138Z,10.27
2022-09-26T02:36:43.882Z,10.34
2022-09-26T02:37:47.980Z,10.37
2022-09-26T02:38:50.294Z,10.40
2022-09-26T02:40:12.865Z,10.41
2022-09-26T02:41:52.050Z,10.53
2022-09-26T02:43:12.019Z,10.42
2022-09-26T02:44:33.524Z,10.35
2022-09-26T02:46:07.981Z,10.31
2022-09-26T02:47:19.810Z,10.41
2022-09-26T02:49:04.479Z,10.39
2022-09-26T02:50:40.430Z,10.51
2022-09-26T02:52:15.966Z,10.52
2022-09-26T02:53:51.964Z,10.43
2022-09-26T02:55:05.028Z,10.45
2022-09-26T02:56:33.657Z,10.33
2022-09-26T02:57:52.108Z,10.33
2022-09-26T02:59:16.679Z,10.31
2022-09-26T03:00:25.453Z,10.32
2022-09-26T03:01:49.953Z,10.22
2022-09-26T03:03:05.819Z,10.24
2022-09-26T03:04:16.955Z,10.23
2022-09-26T03:05:22.312Z,10.15
2022-09-26T03:06:30.246Z,10.25
2022-09-26T03:07:48.743Z,10.31
2022-09-26T03:08:55.148Z,10.18
2022-09-26T03:10:00.646Z,10.14
2022-09-26T03:11:05.257Z,10.04
2022-09-26T03:12:10.034Z,10.11
2022-09-26T03:13:16.206Z,10.13
2022-09-26T03:14:21.030Z,10.10
2022-09-26T03:15:23.812Z,10.06
2022-09-26T03:16:31.413Z,10.05
2022-09-26T03:17:36.803Z,10.08
2022-09-26T03:18:51.971Z,10.17
2022-09-26T03:20:01.668Z,10.25
2022-09-26T03:21:06.841Z,10.12
2022-09-26T03:22:09.376Z,10.10
2022-09-26T03:23:11.857Z,10.09
2022-09-26T03:24:14.240Z,10.05
2022-09-26T03:25:21.243Z,10.08
2022-09-26T03:26:32.580Z,10.12
2022-09-26T03:27:41.862Z,10.11
2022-09-26T03:28:44.469Z,10.10
2022-09-26T03:29:46.697Z,10.11
2022-09-26T03:30:54.962Z,10.23
2022-09-26T03:32:06.714Z,10.17
2022-09-26T03:33:09.518Z,10.13
2022-09-26T03:34:12.550Z,10.06
2022-09-26T03:35:15.806Z,10.04
2022-09-26T03:36:21.303Z,10.06
2022-09-26T03:37:23.504Z,9.97
2022-09-26T03:38:27.123Z,9.99
2022-09-26T03:39:39.315Z,9.88
2022-09-26T03:40:53.988Z,9.83
2022-09-26T03:42:16.590Z,9.99
2022-09-26T03:43:24.148Z,10.00
2022-09-26T03:44:26.757Z,9.92
2022-09-26T03:45:47.586Z,9.90
2022-09-26T03:46:55.481Z,9.89
2022-09-26T03:47:58.279Z,9.83
2022-09-26T03:49:01.114Z,9.90
2022-09-26T03:50:05.270Z,9.88
2022-09-26T03:51:11.805Z,9.90
2022-09-26T03:52:14.213Z,9.98
2022-09-26T03:53:19.108Z,9.91
2022-09-26T03:54:21.415Z,9.89
2022-09-26T03:55:24.497Z,9.74
2022-09-26T03:56:26.984Z,9.73
2022-09-26T03:57:29.270Z,9.68
2022-09-26T03:58:38.883Z,9.65
2022-09-26T03:59:41.483Z,9.70
2022-09-26T04:00:43.714Z,9.77
2022-09-26T04:01:46.116Z,9.83
2022-09-26T04:02:48.750Z,9.85
2022-09-26T04:04:11.980Z,9.90
2022-09-26T04:05:15.025Z,9.89
2022-09-26T04:06:20.245Z,9.78
2022-09-26T04:07:23.061Z,9.80
2022-09-26T04:08:25.323Z,9.87
2022-09-26T04:09:27.886Z,9.87
2022-09-26T04:10:30.520Z,9.81
2022-09-26T04:11:33.251Z,9.80
2022-09-26T04:12:35.474Z,9.82
2022-09-26T04:13:51.271Z,9.80
2022-09-26T04:14:55.027Z,9.78
2022-09-26T04:15:58.487Z,9.79
2022-09-26T04:17:01.532Z,9.80
2022-09-26T04:18:11.830Z,9.74
2022-09-26T04:19:15.327Z,9.60
2022-09-26T04:20:17.707Z,9.51
2022-09-26T04:21:20.430Z,9.44
2022-09-26T04:22:22.757Z,9.31
2022-09-26T04:23:28.105Z,9.39
2022-09-26T04:24:32.815Z,9.50
2022-09-26T04:25:37.506Z,9.47
2022-09-26T04:26:41.236Z,9.42
2022-09-26T04:27:43.469Z,9.45
2022-09-26T04:28:46.643Z,9.47
2022-09-26T04:29:48.934Z,9.47
2022-09-26T04:31:14.135Z,9.48
2022-09-26T04:32:24.786Z,9.38
2022-09-26T04:33:48.194Z,9.29
2022-09-26T04:34:50.421Z,9.17
2022-09-26T04:35:52.728Z,9.11
2022-09-26T04:36:55.104Z,9.09
2022-09-26T04:37:57.366Z,9.10
2022-09-26T04:39:00.627Z,9.14
2022-09-26T04:40:04.474Z,9.06
2022-09-26T04:41:21.901Z,9.14
2022-09-26T04:42:25.180Z,9.16
2022-09-26T04:43:27.497Z,9.21
2022-09-26T04:44:30.328Z,9.20
2022-09-26T04:45:33.816Z,9.19
2022-09-26T04:46:37.135Z,9.21
2022-09-26T04:47:39.435Z,9.24
2022-09-26T04:49:04.785Z,9.28
2022-09-26T04:50:07.273Z,9.29
2022-09-26T04:51:11.930Z,9.30
2022-09-26T04:52:14.213Z,9.29
2022-09-26T04:53:17.956Z,9.34
2022-09-26T04:54:44.018Z,9.20
2022-09-26T04:55:47.979Z,9.16
2022-09-26T04:56:50.279Z,9.16
2022-09-26T04:57:52.551Z,9.17
2022-09-26T04:58:56.993Z,9.21
2022-09-26T05:00:02.279Z,9.25
2022-09-26T05:01:07.769Z,9.28
2022-09-26T05:02:30.430Z,9.35
2022-09-26T05:03:33.178Z,9.37
2022-09-26T05:04:35.998Z,9.26
2022-09-26T05:05:39.839Z,9.27
2022-09-26T05:06:42.192Z,9.28
2022-09-26T05:07:51.321Z,9.30
2022-09-26T05:08:54.923Z,9.29
2022-09-26T05:10:13.730Z,9.31
2022-09-26T05:11:25.041Z,9.35
2022-09-26T05:12:27.256Z,9.31
2022-09-26T05:13:29.586Z,9.33
2022-09-26T05:14:32.215Z,9.32
2022-09-26T05:15:39.669Z,9.33
2022-09-26T05:16:43.175Z,9.36
2022-09-26T05:17:56.553Z,9.38
2022-09-26T05:19:00.022Z,9.42
2022-09-26T05:20:14.355Z,9.43
2022-09-26T05:21:32.489Z,9.44
2022-09-26T05:22:38.189Z,9.41
2022-09-26T05:23:59.326Z,9.29
2022-09-26T05:25:21.565Z,9.20
2022-09-26T05:26:43.124Z,9.19
2022-09-26T05:27:49.890Z,9.25
2022-09-26T05:28:56.251Z,9.28
2022-09-26T05:30:02.935Z,9.36
2022-09-26T05:31:08.533Z,9.43
2022-09-26T05:32:12.014Z,9.50
2022-09-26T05:33:14.825Z,9.61
2022-09-26T05:34:20.134Z,9.66
2022-09-26T05:35:23.650Z,9.68
2022-09-26T05:36:27.194Z,9.75
2022-09-26T05:37:29.580Z,9.74
2022-09-26T05:38:31.864Z,9.66
2022-09-26T05:39:52.757Z,9.68
2022-09-26T05:40:59.233Z,9.77
2022-09-26T05:42:05.639Z,9.74
2022-09-26T05:43:08.154Z,9.71
2022-09-26T05:44:11.074Z,10.19
2022-09-26T05:45:15.555Z,10.87
2022-09-26T05:46:18.469Z,11.43
2022-09-26T05:47:26.430Z,12.48
2022-09-26T05:48:32.166Z,13.42
2022-09-26T05:49:36.027Z,14.29
2022-09-26T05:50:43.339Z,14.60
2022-09-26T05:51:46.580Z,14.47
2022-09-26T05:52:51.855Z,13.90
2022-09-26T05:53:59.409Z,12.79
2022-09-26T05:55:03.837Z,11.85
2022-09-26T05:56:24.713Z,11.31
2022-09-26T05:57:55.571Z,10.93
2022-09-26T05:59:00.675Z,10.86
2022-09-26T06:00:21.396Z,10.74
2022-09-26T06:01:24.455Z,10.67
2022-09-26T06:02:35.837Z,10.34
2022-09-26T06:04:00.498Z,10.27
2022-09-26T06:05:04.985Z,10.22
2022-09-26T06:06:18.848Z,10.23
2022-09-26T06:07:21.994Z,10.15
2022-09-26T06:08:24.417Z,10.13
2022-09-26T06:09:39.103Z,9.97
2022-09-26T06:10:48.572Z,10.05
2022-09-26T06:11:50.844Z,10.07
2022-09-26T06:12:53.436Z,9.99
2022-09-26T06:13:58.241Z,9.88
2022-09-26T06:15:01.067Z,9.77
2022-09-26T06:16:10.514Z,9.97
2022-09-26T06:17:13.384Z,9.99
2022-09-26T06:18:15.875Z,9.88
2022-09-26T06:19:22.793Z,9.92
2022-09-26T06:20:26.384Z,10.15
2022-09-26T06:21:29.853Z,10.34
2022-09-26T06:22:41.860Z,10.22
2022-09-26T06:23:45.444Z,10.30
2022-09-26T06:24:52.032Z,10.22
2022-09-26T06:26:03.355Z,10.12
2022-09-26T06:27:05.827Z,10.14
2022-09-26T06:28:08.556Z,10.20
2022-09-26T06:29:12.844Z,10.11
2022-09-26T06:30:17.279Z,10.13
2022-09-26T06:31:20.801Z,10.16
2022-09-26T06:32:42.462Z,10.32
2022-09-26T06:33:55.388Z,10.33
2022-09-26T06:35:09.119Z,10.46
2022-09-26T06:36:31.750Z,10.48
2022-09-26T06:37:34.195Z,10.62
2022-09-26T06:38:37.239Z,10.71
2022-09-26T06:39:43.927Z,10.79
2022-09-26T06:40:47.242Z,10.85
2022-09-26T06:41:51.024Z,10.93
2022-09-26T06:43:31.710Z,10.99
2022-09-26T06:44:52.711Z,11.08
2022-09-26T06:46:00.900Z,11.21
2022-09-26T06:47:13.596Z,11.30
2022-09-26T06:48:19.920Z,11.34
2022-09-26T06:49:34.878Z,11.47
2022-09-26T06:50:39.111Z,11.60
2022-09-26T06:51:41.831Z,11.72
2022-09-26T06:52:44.758Z,11.78
2022-09-26T06:53:48.544Z,11.83
2022-09-26T06:54:56.794Z,11.82
2022-09-26T06:55:59.572Z,11.77
2022-09-26T06:57:02.081Z,11.96
2022-09-26T06:58:04.361Z,12.05
2022-09-26T06:59:23.143Z,11.88
2022-09-26T07:00:35.347Z,11.61
2022-09-26T07:01:41.473Z,11.65
2022-09-26T07:03:05.542Z,11.40
2022-09-26T07:04:27.188Z,11.19
2022-09-26T07:05:43.709Z,11.13
2022-09-26T07:06:45.957Z,11.31
2022-09-26T07:07:49.724Z,11.18
2022-09-26T07:09:12.447Z,10.84
2022-09-26T07:10:36.089Z,10.96
2022-09-26T07:12:02.781Z,10.83
2022-09-26T07:13:04.287Z,10.77
2022-09-26T07:14:07.168Z,10.62
2022-09-26T07:15:13.702Z,10.64
2022-09-26T07:16:16.013Z,10.72
2022-09-26T07:17:34.676Z,10.75
2022-09-26T07:19:04.799Z,10.76
2022-09-26T07:20:34.826Z,10.94
2022-09-26T07:22:00.109Z,11.02
2022-09-26T07:23:18.534Z,11.15
2022-09-26T07:24:21.016Z,11.17
2022-09-26T07:25:23.322Z,11.07
2022-09-26T07:26:26.259Z,11.00
2022-09-26T07:27:28.594Z,11.04
2022-09-26T07:28:31.227Z,11.22
2022-09-26T07:29:33.530Z,11.38
2022-09-26T07:30:37.515Z,11.39
2022-09-26T07:31:46.490Z,11.57
2022-09-26T07:33:03.505Z,11.60
2022-09-26T07:34:19.244Z,11.80
2022-09-26T07:35:21.772Z,11.81
2022-09-26T07:36:24.544Z,11.69
2022-09-26T07:37:29.294Z,11.67
2022-09-26T07:38:32.676Z,11.77
2022-09-26T07:39:35.350Z,11.92
2022-09-26T07:40:38.354Z,12.14
2022-09-26T07:41:40.796Z,12.51
2022-09-26T07:42:50.679Z,12.51
2022-09-26T07:45:43.893Z,12.02
2022-09-26T07:47:04.636Z,12.63
2022-09-26T07:48:26.198Z,12.76
2022-09-26T07:50:13.340Z,13.22
2022-09-26T07:51:34.053Z,13.46
2022-09-26T07:52:42.210Z,13.66
2022-09-26T07:54:04.934Z,13.74
2022-09-26T07:55:54.997Z,13.91
2022-09-26T07:57:35.546Z,14.01
2022-09-26T07:58:53.386Z,13.91
2022-09-26T08:00:31.492Z,14.36
2022-09-26T08:01:41.744Z,14.07
2022-09-26T08:03:07.023Z,14.40
2022-09-26T08:04:16.228Z,14.66
2022-09-26T08:05:21.795Z,14.64
2022-09-26T08:06:25.688Z,14.33
2022-09-26T08:07:28.168Z,14.67
2022-09-26T08:08:53.055Z,14.52
2022-09-26T08:10:23.959Z,14.85
2022-09-26T08:12:04.602Z,14.96
2022-09-26T08:13:36.185Z,15.24
2022-09-26T08:15:02.048Z,15.19
2022-09-26T08:16:22.860Z,15.22
2022-09-26T08:17:32.475Z,15.41
2022-09-26T08:18:34.813Z,15.55
2022-09-26T08:19:37.606Z,15.60
2022-09-26T08:20:39.841Z,14.96
2022-09-26T08:21:42.184Z,15.37
2022-09-26T08:22:44.593Z,15.57
2022-09-26T08:23:49.239Z,15.74
2022-09-26T08:25:29.730Z,16.38
2022-09-26T08:26:45.988Z,16.38
2022-09-26T08:28:01.287Z,16.42
2022-09-26T08:29:03.913Z,16.68
2022-09-26T08:30:07.612Z,15.86
2022-09-26T08:31:10.365Z,16.01
2022-09-26T08:32:12.930Z,15.63
2022-09-26T08:33:15.424Z,15.73
2022-09-26T08:34:21.403Z,16.16
2022-09-26T08:35:53.098Z,16.13
2022-09-26T08:37:26.305Z,16.11
2022-09-26T08:38:50.206Z,16.48
2022-09-26T08:41:07.795Z,16.69
2022-09-26T08:42:34.323Z,16.17
2022-09-26T08:44:24.237Z,15.84
2022-09-26T08:46:48.899Z,16.66
2022-09-26T08:48:53.562Z,16.38
2022-09-26T08:50:18.199Z,16.55
2022-09-26T08:51:33.857Z,16.83
2022-09-26T08:52:49.346Z,16.99
2022-09-26T08:54:17.907Z,16.66
2022-09-26T08:55:30.283Z,16.04
2022-09-26T08:56:38.441Z,16.54
2022-09-26T08:57:46.395Z,16.61
2022-09-26T08:58:52.518Z,16.72
2022-09-26T08:59:58.115Z,16.92
2022-09-26T09:01:03.308Z,17.10
2022-09-26T09:02:41.277Z,16.87
2022-09-26T09:03:58.377Z,17.01
2022-09-26T09:05:04.450Z,17.28
2022-09-26T09:06:14.521Z,16.90
2022-09-26T09:07:25.797Z,17.10
2022-09-26T09:08:34.490Z,17.30
2022-09-26T09:10:06.167Z,17.30
2022-09-26T09:12:15.034Z,17.27
2022-09-26T09:13:59.448Z,17.91
2022-09-26T09:15:32.310Z,18.22
2022-09-26T09:17:17.487Z,17.83
2022-09-26T09:19:08.422Z,18.42
2022-09-26T09:20:58.146Z,18.75
2022-09-26T09:22:44.724Z,18.05
2022-09-26T09:24:20.988Z,18.54
2022-09-26T09:25:48.535Z,17.95
2022-09-26T09:29:24.512Z,18.62
2022-09-26T09:31:02.031Z,18.95
2022-09-26T09:32:32.243Z,19.40
2022-09-26T09:33:58.652Z,19.04
2022-09-26T09:35:02.545Z,19.01
2022-09-26T09:36:23.698Z,18.70
2022-09-26T09:37:49.823Z,19.07
2022-09-26T09:39:26.839Z,18.24
2022-09-26T09:40:53.557Z,18.64
2022-09-26T09:42:09.951Z,18.60
2022-09-26T09:43:28.714Z,19.27
2022-09-26T09:44:53.763Z,19.23
2022-09-26T09:46:03.157Z,19.25
2022-09-26T09:47:14.714Z,18.56
2022-09-26T09:48:17.634Z,18.43
2022-09-26T09:49:24.751Z,18.34
2022-09-26T09:50:42.746Z,17.95
2022-09-26T09:52:22.083Z,17.50
2022-09-26T09:53:51.594Z,17.70
2022-09-26T09:55:05.630Z,18.15
2022-09-26T09:56:42.105Z,18.31
2022-09-26T09:57:59.497Z,17.58
2022-09-26T09:59:19.460Z,18.31
2022-09-26T10:00:41.476Z,18.00
2022-09-26T10:02:16.355Z,17.82
2022-09-26T10:03:26.563Z,17.38
2022-09-26T10:04:40.749Z,17.51
2022-09-26T10:05:45.434Z,17.40
2022-09-26T10:07:01.837Z,17.17
2022-09-26T10:08:11.081Z,16.67
2022-09-26T10:09:45.911Z,16.87
2022-09-26T10:11:39.433Z,17.04
2022-09-26T10:13:01.771Z,16.97
2022-09-26T10:14:55.611Z,17.72
2022-09-26T10:16:35.515Z,17.85
2022-09-26T10:18:22.960Z,18.46
2022-09-26T10:19:37.521Z,18.55
2022-09-26T10:20:52.752Z,18.48
2022-09-26T10:21:55.455Z,18.55
2022-09-26T10:22:58.173Z,18.33
2022-09-26T10:24:04.835Z,18.74
2022-09-26T10:25:26.280Z,19.14
2022-09-26T10:26:34.972Z,19.20
2022-09-26T10:27:39.417Z,18.92
2022-09-26T10:28:48.526Z,19.23
2022-09-26T10:30:00.835Z,18.65
2022-09-26T10:31:10.582Z,18.73
2022-09-26T10:32:57.271Z,18.67
2022-09-26T10:34:34.457Z,19.07
2022-09-26T10:35:39.684Z,18.88
2022-09-26T10:36:42.260Z,18.41
2022-09-26T10:38:18.120Z,18.41
2022-09-26T10:39:42.066Z,18.06
2022-09-26T10:40:55.179Z,17.23
2022-09-26T10:41:59.302Z,17.22
2022-09-26T10:43:21.255Z,17.35
2022-09-26T10:44:25.911Z,17.10
2022-09-26T10:45:40.327Z,17.08
2022-09-26T10:47:26.246Z,16.94
2022-09-26T10:48:48.760Z,17.04
2022-09-26T10:50:16.946Z,16.73
2022-09-26T10:52:27.106Z,17.01
2022-09-26T10:53:38.334Z,16.73
2022-09-26T10:54:45.654Z,16.62
2022-09-26T10:55:59.697Z,16.79
2022-09-26T10:57:03.001Z,16.68
2022-09-26T10:58:15.350Z,16.30
2022-09-26T10:59:24.384Z,15.82
2022-09-26T11:00:39.160Z,15.81
2022-09-26T11:01:51.768Z,15.91
2022-09-26T11:02:54.480Z,15.66
2022-09-26T11:04:10.429Z,15.69
2022-09-26T11:05:56.378Z,15.88
2022-09-26T11:07:06.112Z,16.02
2022-09-26T11:08:14.102Z,16.15
2022-09-26T11:09:46.932Z,16.12
2022-09-26T11:11:16.086Z,15.90
2022-09-26T11:12:31.599Z,15.85
2022-09-26T11:14:03.171Z,15.88
2022-09-26T11:15:10.051Z,15.80
2022-09-26T11:16:15.486Z,15.88
2022-09-26T11:17:20.276Z,15.75
2022-09-26T11:18:44.848Z,15.61
2022-09-26T11:20:00.252Z,15.45
2022-09-26T11:21:28.326Z,15.40
2022-09-26T11:22:40.363Z,15.40
2022-09-26T11:23:58.021Z,15.49
2022-09-26T11:25:11.605Z,15.52
2022-09-26T11:26:37.013Z,16.11
2022-09-26T11:27:48.544Z,16.39
2022-09-26T11:29:19.966Z,17.06
2022-09-26T11:30:48.248Z,17.47
2022-09-26T11:32:00.059Z,17.52
2022-09-26T11:33:19.889Z,17.68
2022-09-26T11:34:40.999Z,17.87
2022-09-26T11:36:03.605Z,17.79
2022-09-26T11:37:40.392Z,18.32
2022-09-26T11:39:07.761Z,16.88
2022-09-26T11:40:34.377Z,16.97
2022-09-26T11:41:54.500Z,17.01
2022-09-26T11:43:40.685Z,16.90
2022-09-26T11:45:01.283Z,17.20
2022-09-26T11:46:40.603Z,17.55
2022-09-26T11:48:28.268Z,16.99
2022-09-26T11:50:35.562Z,17.17
2022-09-26T11:52:06.220Z,16.94
2022-09-26T11:53:24.371Z,17.41
2022-09-26T11:55:05.048Z,17.43
2022-09-26T11:56:44.893Z,16.88
2022-09-26T11:57:50.465Z,16.65
2022-09-26T11:59:00.043Z,15.79
2022-09-26T12:00:15.657Z,16.09
2022-09-26T12:01:48.250Z,16.00
2022-09-26T12:03:08.544Z,15.80
2022-09-26T12:04:35.059Z,15.22
2022-09-26T12:05:52.175Z,15.49
2022-09-26T12:07:01.890Z,15.42
2022-09-26T12:08:11.246Z,15.19
2022-09-26T12:09:22.043Z,15.32
2022-09-26T12:10:45.766Z,15.08
2022-09-26T12:12:10.498Z,15.16
2022-09-26T12:13:40.420Z,15.00
2022-09-26T12:15:04.609Z,14.65
2022-09-26T12:16:09.873Z,14.11
2022-09-26T12:17:37.192Z,13.88
2022-09-26T12:18:39.721Z,14.08
2022-09-26T12:20:17.650Z,13.89
2022-09-26T12:21:24.728Z,13.84
2022-09-26T12:22:38.523Z,13.80
2022-09-26T12:23:54.653Z,14.13
2022-09-26T12:25:07.586Z,14.39
2022-09-26T12:26:21.136Z,14.02
2022-09-26T12:27:37.472Z,14.40
2022-09-26T12:29:16.509Z,14.39
2022-09-26T12:30:26.667Z,14.43
2022-09-26T12:31:48.773Z,14.41
2022-09-26T12:33:08.818Z,14.46
2022-09-26T12:34:43.597Z,14.33
2022-09-26T12:35:56.849Z,13.94
2022-09-26T12:37:17.741Z,14.23
2022-09-26T12:38:57.895Z,13.93
2022-09-26T12:40:10.223Z,14.05
2022-09-26T12:41:37.337Z,13.85
2022-09-26T12:42:58.631Z,13.82
2022-09-26T12:44:31.237Z,14.30
2022-09-26T12:46:05.304Z,14.13
2022-09-26T12:47:44.745Z,14.90
2022-09-26T12:49:02.838Z,14.52
2022-09-26T12:50:24.817Z,14.79
2022-09-26T12:51:41.194Z,14.33
2022-09-26T12:52:52.022Z,14.46
2022-09-26T12:54:09.202Z,14.54
2022-09-26T12:55:32.340Z,14.89
2022-09-26T12:56:50.090Z,14.85
2022-09-26T12:58:00.548Z,14.93
2022-09-26T12:59:22.767Z,15.07
2022-09-26T13:00:25.248Z,15.19
2022-09-26T13:01:52.479Z,15.32
2022-09-26T13:03:16.336Z,15.33
2022-09-26T13:04:52.877Z,15.43
2022-09-26T13:06:57.284Z,15.10
2022-09-26T13:08:34.902Z,15.05
2022-09-26T13:09:44.144Z,15.04
2022-09-26T13:11:27.338Z,15.04
2022-09-26T13:13:23.823Z,15.18
2022-09-26T13:15:04.999Z,15.36
2022-09-26T13:16:25.476Z,15.29
2022-09-26T13:17:42.683Z,14.98
2022-09-26T13:18:49.779Z,15.04
2022-09-26T13:20:01.417Z,14.98
2022-09-26T13:21:12.167Z,15.16
2022-09-26T13:22:34.581Z,15.03
2022-09-26T13:23:45.088Z,15.47
2022-09-26T13:24:52.840Z,15.46
2022-09-26T13:26:14.111Z,15.01
2022-09-26T13:27:23.107Z,15.23
2022-09-26T13:28:55.690Z,15.46
2022-09-26T13:30:28.103Z,15.31
2022-09-26T13:31:35.817Z,15.46
2022-09-26T13:32:56.978Z,15.36
2022-09-26T13:34:04.112Z,15.39
2022-09-26T13:35:20.731Z,15.07
2022-09-26T13:36:24.380Z,14.89
2022-09-26T13:37:45.891Z,14.76
2022-09-26T13:39:14.082Z,14.89
2022-09-26T13:40:41.438Z,15.08
2022-09-26T13:41:51.585Z,14.59
2022-09-26T13:43:05.856Z,14.44
2022-09-26T13:44:53.581Z,14.46
2022-09-26T13:46:20.508Z,14.11
2022-09-26T13:47:40.643Z,14.10
2022-09-26T13:48:51.724Z,13.94
2022-09-26T13:50:32.443Z,14.23
2022-09-26T13:52:19.978Z,14.17
2022-09-26T13:53:38.136Z,14.25
2022-09-26T13:55:02.719Z,14.65
2022-09-26T13:56:36.069Z,14.80
2022-09-26T13:58:02.921Z,14.68
2022-09-26T13:59:45.254Z,14.94
2022-09-26T14:00:54.646Z,14.65
2022-09-26T14:02:28.140Z,14.66
2022-09-26T14:03:36.861Z,14.82
2022-09-26T14:04:39.022Z,14.82
2022-09-26T14:05:41.145Z,14.88
2022-09-26T14:07:29.684Z,14.92
2022-09-26T14:08:53.067Z,14.88
2022-09-26T14:10:01.479Z,15.12
2022-09-26T14:11:19.121Z,15.12
2022-09-26T14:12:54.690Z,15.01
2022-09-26T14:14:18.874Z,15.37
2022-09-26T14:15:28.325Z,15.57
2022-09-26T14:16:30.511Z,15.68
2022-09-26T14:17:44.680Z,15.47
2022-09-26T14:19:10.951Z,15.46
2022-09-26T14:20:27.470Z,15.66
2022-09-26T14:22:00.560Z,15.76
2022-09-26T14:23:03.199Z,15.75
2022-09-26T14:24:26.668Z,15.94
2022-09-26T14:25:47.418Z,15.86
2022-09-26T14:27:11.123Z,15.92
2022-09-26T14:28:32.124Z,15.88
2022-09-26T14:29:40.450Z,15.97
2022-09-26T14:31:11.184Z,15.74
2022-09-26T14:32:37.826Z,15.87
2022-09-26T14:33:40.578Z,15.93
2022-09-26T14:34:55.466Z,16.03
2022-09-26T14:36:17.041Z,16.15
2022-09-26T14:37:25.282Z,16.26
2022-09-26T14:38:27.499Z,16.20
2022-09-26T14:39:43.613Z,16.19
2022-09-26T14:40:58.136Z,16.16
2022-09-26T14:42:10.040Z,16.14
2022-09-26T14:43:18.667Z,16.38
2022-09-26T14:44:22.391Z,16.66
2022-09-26T14:45:43.899Z,16.30
2022-09-26T14:46:52.890Z,16.38
2022-09-26T14:48:12.646Z,16.21
2022-09-26T14:49:21.008Z,15.96
2022-09-26T14:50:35.420Z,15.93
2022-09-26T14:51:41.174Z,15.90
2022-09-26T14:52:52.092Z,15.70
2022-09-26T14:54:13.911Z,15.54
2022-09-26T14:55:16.674Z,15.58
2022-09-26T14:56:30.243Z,15.41
2022-09-26T14:57:37.462Z,15.41
2022-09-26T14:58:40.188Z,15.24
2022-09-26T14:59:43.341Z,15.02
2022-09-26T15:00:49.212Z,14.95
2022-09-26T15:01:53.622Z,14.94
2022-09-26T15:03:00.264Z,14.93
2022-09-26T15:04:20.638Z,14.85
2022-09-26T15:05:24.209Z,14.92
2022-09-26T15:06:28.148Z,14.87
2022-09-26T15:07:35.219Z,14.89
2022-09-26T15:08:39.491Z,14.79
2022-09-26T15:09:55.425Z,14.86
2022-09-26T15:10:59.295Z,14.81
2022-09-26T15:12:08.849Z,14.91
2022-09-26T15:13:16.824Z,14.85
2022-09-26T15:14:40.757Z,14.98
2022-09-26T15:15:51.125Z,15.03
2022-09-26T15:16:55.648Z,15.09
2022-09-26T15:18:31.998Z,14.86
2022-09-26T15:19:46.384Z,14.73
2022-09-26T15:20:54.624Z,14.67
2022-09-26T15:22:15.188Z,14.74
2022-09-26T15:23:31.604Z,14.68
2022-09-26T15:24:36.589Z,14.53
2022-09-26T15:25:38.884Z,14.57
2022-09-26T15:26:43.252Z,14.55
2022-09-26T15:27:54.066Z,14.55
2022-09-26T15:28:57.121Z,14.53
2022-09-26T15:30:11.021Z,14.49
2022-09-26T15:31:25.316Z,14.56
2022-09-26T15:32:30.364Z,14.56
2022-09-26T15:33:38.952Z,14.57
2022-09-26T15:34:41.241Z,14.66
2022-09-26T15:35:53.890Z,14.59
2022-09-26T15:36:58.018Z,14.67
2022-09-26T15:38:02.897Z,14.70
2022-09-26T15:39:31.397Z,14.86
2022-09-26T15:40:33.774Z,14.78
2022-09-26T15:42:03.524Z,14.82
2022-09-26T15:43:20.287Z,14.69
2022-09-26T15:44:29.056Z,14.92
2022-09-26T15:45:33.243Z,14.71
2022-09-26T15:46:35.816Z,14.87
2022-09-26T15:47:37.990Z,14.90
2022-09-26T15:48:43.076Z,14.92
2022-09-26T15:49:45.451Z,14.90
2022-09-26T15:51:02.571Z,14.76
2022-09-26T15:52:05.044Z,14.85
2022-09-26T15:53:17.628Z,14.77
2022-09-26T15:54:28.778Z,14.86
2022-09-26T15:55:35.374Z,14.97
2022-09-26T15:56:37.983Z,14.97
2022-09-26T15:57:40.806Z,14.88
2022-09-26T15:59:00.764Z,14.80
2022-09-26T16:00:04.471Z,14.77
2022-09-26T16:01:08.520Z,14.72
2022-09-26T16:02:28.955Z,14.66